Portland, Oregon
Traffic Map
Current Weather Conditions
Portland, Oregon
Broken Clouds
Broken Clouds
21°
Feels Like: 21°
Wind Chill: 21° Ceiling: 8000
Heat Index: 21° Visibility: 10mi
Dew Point: Wind: 12mph
Humidity: 47% Direction: 260° (W)
Pressure: 30.03in Gusts: 0mph
Raw Report DataKPDX 310153Z 26010KT 10SM FEW035 SCT050 BKN080 BKN250 21/09 A3003 RMK AO2 SLP167 T02110094 $
Traffic Incident Summary
Active as of:
Severity:
Category:
InformationThere was an issue retrieving the traffic information for this location. Please try a different location or try again shortly.
Advertisements
Track Severe Weather on mobile